首页
METAR-TAF:

METAR-TAF

机场 :

金浦国际机场

汉城 / 金浦機場, 大韩民国

纬度: 37-33N, 经度: 126-48E, 海拔: 18米

当前天气观测

该预报发布于43分钟前的11:16 UTC
风速11节,风向西南,在南转西南西之间变化
温度 18°C
湿度 100%
气压 1001 hPa
能見度: 4000
散云层高于500英尺
多云层高于2000英尺
阴天层高于8000英尺
小毛毛雨, 轻雾,

METAR: RKSS 261116Z 23011KT 200V260 4000 -DZ BR SCT005 BKN020 OVC080 18/18 Q1001 NOSIG

时间: 20:59 (11:59 UTC)

预报

该预报发布于59分钟前的11:00 UTC
预报有效从26日的 12点(UTC)到 27日的 18点(UTC)
风速10节,风向西转西南,有时为20节阵风
能見度: 6000
少量云层高于1000英尺
多云层高于2800英尺
阴天层高于8000英尺
成为
从 26日的 15点(UTC)到 26日的 17点(UTC)
风速8节,风向西转西北
能见度10公里或以上
1500米以下无云,无积雨云
成为
从 27日的 01点(UTC)到 27日的 03点(UTC)
风速15节,风向西北,有时为30节阵风
成为
从 27日的 10点(UTC)到 27日的 12点(UTC)
风速8节,风向西

TAF: RKSS 261100Z 2612/2718 24010G20KT 6000 FEW010 BKN028 OVC080 TN14/2621Z TX23/2706Z BECMG 2615/2617 30008KT CAVOK BECMG 2701/2703 32015G30KT BECMG 2710/2712 27008KT

超过4000个机场的气象观测和天气预报(METAR&TAF报告)。

可查询的气象台以黄色和红色小点在地图上表示。

将鼠标移到小点上方,可查看气象台名称。

然后点击查看天气观测和预报。

如需切换地图:点击带黑十字的绿色按钮放大地图;点击带横线的绿色按钮缩小地图;或者点击绿色箭头查看邻近地区的地图。


METAR-TAF: